Terminal Aerodrome Forecast
Issued by NWS Charleston, WV

Current Version | Previous Version | Graphics & Text | Print | Product List | Glossary On
Versions: 1 2 3 4 5 6 7 8 9 10 11 12 13 14 15 16 17 18 19 20 21 22 23 24 25 26 27 28 29
000
FTUS41 KRLX 211700
TAFEKN
TAF
KEKN 211735Z 2118/2218 VRB03KT P6SM VCTS SCT030CB
      TEMPO 2118/2120 5SM -TSRA BR BKN030CB
     FM212300 00000KT P6SM BKN050
     FM220300 00000KT 4SM BR SCT030
     FM220500 00000KT 1 1/2SM BR SCT030
     FM220700 00000KT 1/4SM FG OVC001
     FM221300 VRB03KT 3SM BR SCT040
     FM221400 VRB03KT P6SM SCT040=

USA.gov is the U.S. government's official web portal to all federal, state and local government web resources and services.